createdAt,value
2019-03-01T00:02:26.199Z,21.55
2019-03-01T00:05:13.194Z,21.27
2019-03-01T00:07:59.078Z,18.85
2019-03-01T00:10:48.958Z,21.40
2019-03-01T00:13:41.086Z,22.58
2019-03-01T00:16:28.142Z,20.27
2019-03-01T00:19:20.405Z,23.40
2019-03-01T00:22:13.520Z,20.72
2019-03-01T00:25:00.526Z,20.97
2019-03-01T00:27:52.965Z,19.10
2019-03-01T00:30:38.777Z,21.27
2019-03-01T00:33:29.614Z,19.30
2019-03-01T00:36:11.953Z,19.20
2019-03-01T00:38:59.191Z,19.95
2019-03-01T00:41:42.484Z,21.90
2019-03-01T00:44:16.323Z,20.30
2019-03-01T00:46:47.005Z,19.48
2019-03-01T00:49:16.179Z,21.62
2019-03-01T00:51:47.488Z,21.82
2019-03-01T00:54:17.418Z,20.37
2019-03-01T00:56:45.289Z,20.95
2019-03-01T00:59:13.619Z,21.95
2019-03-01T01:01:43.846Z,19.87
2019-03-01T01:04:12.879Z,21.52
2019-03-01T01:06:42.278Z,20.20
2019-03-01T01:09:10.178Z,20.10
2019-03-01T01:11:38.457Z,18.60
2019-03-01T01:14:08.752Z,20.08
2019-03-01T01:16:36.666Z,19.73
2019-03-01T01:19:05.713Z,20.65
2019-03-01T01:21:33.797Z,18.48
2019-03-01T01:24:02.083Z,19.12
2019-03-01T01:26:32.394Z,18.07
2019-03-01T01:29:00.438Z,18.73
2019-03-01T01:31:28.357Z,20.32
2019-03-01T01:33:56.462Z,19.07
2019-03-01T01:36:26.381Z,20.27
2019-03-01T01:38:55.691Z,19.07
2019-03-01T01:41:31.706Z,19.87
2019-03-01T01:43:59.783Z,18.45
2019-03-01T01:46:30.923Z,19.00
2019-03-01T01:49:00.476Z,19.25
2019-03-01T01:51:28.452Z,20.37
2019-03-01T01:53:58.488Z,20.43
2019-03-01T01:56:27.109Z,20.85
2019-03-01T01:58:54.997Z,20.45
2019-03-01T02:01:26.176Z,21.42
2019-03-01T02:03:54.113Z,19.48
2019-03-01T02:06:22.057Z,20.48
2019-03-01T02:08:49.952Z,20.00
2019-03-01T02:11:18.434Z,21.95
2019-03-01T02:13:49.185Z,23.90
2019-03-01T02:16:19.114Z,19.73
2019-03-01T02:18:57.454Z,21.23
2019-03-01T02:21:19.751Z,23.02
2019-03-01T02:23:49.576Z,21.12
2019-03-01T02:26:21.404Z,22.10
2019-03-01T02:28:52.110Z,21.25
2019-03-01T02:31:23.575Z,21.05
2019-03-01T02:33:51.899Z,21.17
2019-03-01T02:36:20.286Z,21.68
2019-03-01T02:38:50.585Z,22.27
2019-03-01T02:41:18.884Z,21.85
2019-03-01T02:43:49.249Z,22.05
2019-03-01T02:46:20.539Z,21.10
2019-03-01T02:48:48.543Z,21.27
2019-03-01T02:51:16.577Z,22.45
2019-03-01T02:53:44.765Z,21.70
2019-03-01T02:56:12.756Z,21.45
2019-03-01T02:58:41.818Z,22.22
2019-03-01T03:01:09.737Z,22.95
2019-03-01T03:03:43.965Z,24.90
2019-03-01T03:06:25.702Z,22.40
2019-03-01T03:08:53.811Z,24.05
2019-03-01T03:11:23.498Z,22.37
2019-03-01T03:13:52.252Z,21.40
2019-03-01T03:16:20.830Z,24.00
2019-03-01T03:18:50.650Z,24.27
2019-03-01T03:21:19.462Z,23.05
2019-03-01T03:23:49.857Z,24.20
2019-03-01T03:26:19.168Z,23.02
2019-03-01T03:28:48.449Z,23.52
2019-03-01T03:31:16.432Z,22.80
2019-03-01T03:33:44.911Z,22.10
2019-03-01T03:36:12.813Z,24.27
2019-03-01T03:38:40.717Z,22.87
2019-03-01T03:41:08.853Z,27.48
2019-03-01T03:43:38.838Z,24.40
2019-03-01T03:46:08.475Z,23.90
2019-03-01T03:48:37.778Z,23.10
2019-03-01T03:51:07.201Z,25.45
2019-03-01T03:53:38.179Z,23.40
2019-03-01T03:56:06.086Z,25.88
2019-03-01T03:58:35.474Z,23.65
2019-03-01T04:01:03.410Z,27.60
2019-03-01T04:03:32.915Z,25.15
2019-03-01T04:06:02.873Z,25.65
2019-03-01T04:08:30.906Z,28.20
2019-03-01T04:10:59.415Z,24.77
2019-03-01T04:13:30.808Z,27.95
2019-03-01T04:16:08.398Z,27.42
2019-03-01T04:18:36.777Z,26.17
2019-03-01T04:21:05.385Z,29.60
2019-03-01T04:23:33.359Z,27.02
2019-03-01T04:26:01.642Z,29.70
2019-03-01T04:28:30.078Z,28.07
2019-03-01T04:30:58.049Z,28.17
2019-03-01T04:33:26.738Z,27.52
2019-03-01T04:35:55.151Z,31.27
2019-03-01T04:38:24.361Z,33.35
2019-03-01T04:40:55.360Z,30.72
2019-03-01T04:43:23.225Z,28.02
2019-03-01T04:45:51.192Z,28.62
2019-03-01T04:48:19.065Z,29.80
2019-03-01T04:50:47.026Z,30.37
2019-03-01T04:53:18.215Z,30.15
2019-03-01T04:55:47.172Z,30.10
2019-03-01T04:58:15.142Z,31.75
2019-03-01T05:00:44.145Z,31.62
2019-03-01T05:03:14.094Z,28.90
2019-03-01T05:05:43.191Z,32.78
2019-03-01T05:08:11.566Z,30.72
2019-03-01T05:10:39.998Z,29.65
2019-03-01T05:13:07.927Z,30.68
2019-03-01T05:15:35.834Z,27.30
2019-03-01T05:18:04.858Z,31.17
2019-03-01T05:20:33.808Z,31.60
2019-03-01T05:23:01.883Z,30.85
2019-03-01T05:25:29.790Z,32.95
2019-03-01T05:27:57.721Z,33.13
2019-03-01T05:30:27.691Z,31.55
2019-03-01T05:32:56.204Z,32.53
2019-03-01T05:35:24.638Z,30.25
2019-03-01T05:37:52.562Z,31.60
2019-03-01T05:40:20.480Z,35.13
2019-03-01T05:42:48.881Z,32.45
2019-03-01T05:45:17.959Z,32.98
2019-03-01T05:47:45.950Z,30.17
2019-03-01T05:50:16.090Z,32.17
2019-03-01T05:52:44.925Z,33.05
2019-03-01T05:55:12.849Z,30.90
2019-03-01T05:57:59.691Z,32.63
2019-03-01T06:00:29.069Z,29.72
2019-03-01T06:03:07.001Z,29.77
2019-03-01T06:05:38.851Z,31.68
2019-03-01T06:08:44.290Z,30.68
2019-03-01T06:11:22.160Z,32.53
2019-03-01T06:13:57.946Z,30.10
2019-03-01T06:16:40.247Z,29.63
2019-03-01T06:19:20.034Z,31.35
2019-03-01T06:22:07.106Z,32.13
2019-03-01T06:25:12.498Z,31.45
2019-03-01T06:28:02.142Z,29.23
2019-03-01T06:30:51.790Z,29.60
2019-03-01T06:33:31.749Z,29.23
2019-03-01T06:36:02.183Z,31.37
2019-03-01T06:39:10.206Z,28.05
2019-03-01T06:41:56.399Z,30.35
2019-03-01T06:44:31.784Z,29.52
2019-03-01T06:47:25.082Z,29.92
2019-03-01T06:49:58.018Z,29.52
2019-03-01T06:52:27.738Z,30.30
2019-03-01T06:54:56.951Z,30.12
2019-03-01T06:57:27.477Z,29.48
2019-03-01T06:59:55.358Z,28.80
2019-03-01T07:02:29.515Z,27.73
2019-03-01T07:04:57.329Z,29.15
2019-03-01T07:07:26.062Z,27.80
2019-03-01T07:09:53.969Z,27.73
2019-03-01T07:12:22.115Z,28.27
2019-03-01T07:14:49.980Z,29.02
2019-03-01T07:17:17.827Z,27.17
2019-03-01T07:19:45.689Z,27.37
2019-03-01T07:22:13.522Z,27.05
2019-03-01T07:24:41.407Z,27.20
2019-03-01T07:27:09.281Z,27.58
2019-03-01T07:29:37.155Z,26.65
2019-03-01T07:32:04.984Z,26.68
2019-03-01T07:34:32.827Z,25.48
2019-03-01T07:37:00.681Z,27.17
2019-03-01T07:39:28.542Z,25.43
2019-03-01T07:41:56.391Z,24.77
2019-03-01T07:44:24.503Z,26.80
2019-03-01T07:46:53.371Z,27.20
2019-03-01T07:49:21.963Z,28.98
2019-03-01T07:51:49.819Z,25.92
2019-03-01T07:54:18.051Z,26.50
2019-03-01T07:56:46.023Z,24.40
2019-03-01T07:59:13.986Z,26.75
2019-03-01T08:01:41.819Z,25.35
2019-03-01T08:04:09.709Z,26.15
2019-03-01T08:06:37.509Z,25.23
2019-03-01T08:09:10.160Z,23.95
2019-03-01T08:11:38.044Z,23.55
2019-03-01T08:14:05.898Z,24.57
2019-03-01T08:16:33.853Z,25.05
2019-03-01T08:19:01.732Z,23.55
2019-03-01T08:21:29.863Z,25.45
2019-03-01T08:23:57.727Z,25.05
2019-03-01T08:26:25.626Z,23.02
2019-03-01T08:28:54.778Z,25.72
2019-03-01T08:31:23.026Z,22.65
2019-03-01T08:33:50.874Z,25.10
2019-03-01T08:36:18.742Z,24.63
2019-03-01T08:38:46.602Z,24.67
2019-03-01T08:41:14.470Z,26.52
2019-03-01T08:43:44.722Z,25.72
2019-03-01T08:46:11.876Z,26.02
2019-03-01T08:48:39.694Z,24.70
2019-03-01T08:51:07.529Z,23.55
2019-03-01T08:53:35.358Z,24.35
2019-03-01T08:56:03.200Z,25.08
2019-03-01T08:58:31.226Z,27.37
2019-03-01T09:01:00.021Z,25.75
2019-03-01T09:03:30.965Z,23.35
2019-03-01T09:05:58.838Z,22.95
2019-03-01T09:08:26.730Z,23.62
2019-03-01T09:10:54.540Z,23.98
2019-03-01T09:13:22.406Z,21.73
2019-03-01T09:15:50.469Z,21.85
2019-03-01T09:18:18.434Z,21.75
2019-03-01T09:20:46.272Z,22.77
2019-03-01T09:23:23.527Z,24.43
2019-03-01T09:25:44.652Z,21.85
2019-03-01T09:28:13.262Z,19.80
2019-03-01T09:30:43.531Z,18.80
2019-03-01T09:33:10.711Z,20.52
2019-03-01T09:35:50.053Z,17.92
2019-03-01T09:38:18.098Z,18.15
2019-03-01T09:40:45.926Z,19.80
2019-03-01T09:43:13.810Z,17.20
2019-03-01T09:45:41.654Z,17.57
2019-03-01T09:48:12.214Z,17.07
2019-03-01T09:50:39.071Z,18.95
2019-03-01T09:53:06.898Z,17.57
2019-03-01T09:55:37.693Z,19.00
2019-03-01T09:58:04.717Z,17.87
2019-03-01T10:00:32.737Z,21.68
2019-03-01T10:03:00.589Z,20.60
2019-03-01T10:05:28.466Z,21.70
2019-03-01T10:07:56.264Z,19.85
2019-03-01T10:10:25.408Z,21.10
2019-03-01T10:12:53.248Z,21.75
2019-03-01T10:15:21.095Z,21.05
2019-03-01T10:17:48.930Z,21.60
2019-03-01T10:20:16.785Z,20.57
2019-03-01T10:22:44.613Z,19.20
2019-03-01T10:25:12.912Z,19.60
2019-03-01T10:27:40.745Z,20.20
2019-03-01T10:30:10.806Z,21.25
2019-03-01T10:32:38.981Z,21.87
2019-03-01T10:35:07.422Z,21.87
2019-03-01T10:37:35.260Z,22.90
2019-03-01T10:40:03.127Z,23.07
2019-03-01T10:42:32.166Z,25.88
2019-03-01T10:45:00.261Z,24.55
2019-03-01T10:47:29.999Z,23.90
2019-03-01T10:50:01.303Z,24.20
2019-03-01T10:52:29.231Z,23.20
2019-03-01T10:55:08.676Z,22.60
2019-03-01T10:57:36.566Z,23.98
2019-03-01T11:00:08.385Z,22.67
2019-03-01T11:02:37.385Z,23.05
2019-03-01T11:05:05.402Z,22.20
2019-03-01T11:07:35.830Z,23.20
2019-03-01T11:10:10.869Z,23.27
2019-03-01T11:12:39.143Z,21.90
2019-03-01T11:15:12.626Z,23.35
2019-03-01T11:17:40.687Z,23.50
2019-03-01T11:20:08.778Z,22.25
2019-03-01T11:22:36.769Z,22.73
2019-03-01T11:25:05.531Z,22.67
2019-03-01T11:27:33.958Z,20.97
2019-03-01T11:30:03.115Z,20.82
2019-03-01T11:32:31.493Z,22.70
2019-03-01T11:34:59.383Z,28.25
2019-03-01T11:37:27.360Z,28.52
2019-03-01T11:39:55.335Z,29.92
2019-03-01T11:42:31.803Z,31.35
2019-03-01T11:45:04.330Z,30.40
2019-03-01T11:47:32.350Z,32.10
2019-03-01T11:50:02.463Z,29.20
2019-03-01T11:52:31.474Z,31.60
2019-03-01T11:55:00.587Z,30.00
2019-03-01T11:57:30.125Z,31.50
2019-03-01T12:00:01.980Z,31.93
2019-03-01T12:02:30.629Z,33.28
2019-03-01T12:04:58.573Z,32.67
2019-03-01T12:07:28.474Z,30.35
2019-03-01T12:09:56.882Z,31.87
2019-03-01T12:12:26.610Z,31.97
2019-03-01T12:14:55.093Z,30.80
2019-03-01T12:17:23.015Z,28.40
2019-03-01T12:19:50.967Z,29.42
2019-03-01T12:22:21.590Z,29.57
2019-03-01T12:24:50.298Z,28.30
2019-03-01T12:27:18.181Z,28.73
2019-03-01T12:29:48.643Z,27.42
2019-03-01T12:32:16.608Z,28.55
2019-03-01T12:34:44.494Z,30.20
2019-03-01T12:37:15.896Z,26.77
2019-03-01T12:39:46.226Z,20.50
2019-03-01T12:42:14.193Z,19.75
2019-03-01T12:44:43.597Z,17.12
2019-03-01T12:47:13.467Z,16.02
2019-03-01T12:49:52.440Z,16.30
2019-03-01T12:52:20.359Z,14.30
2019-03-01T12:54:48.712Z,15.35
2019-03-01T12:57:18.106Z,15.08
2019-03-01T12:59:48.804Z,14.33
2019-03-01T13:02:18.161Z,15.23
2019-03-01T13:04:46.098Z,15.43
2019-03-01T13:07:14.039Z,15.05
2019-03-01T13:09:42.026Z,14.83
2019-03-01T13:12:09.906Z,16.50
2019-03-01T13:14:39.480Z,15.98
2019-03-01T13:17:07.397Z,17.77
2019-03-01T13:19:35.238Z,14.43
2019-03-01T13:22:03.115Z,15.08
2019-03-01T13:24:30.997Z,15.53
2019-03-01T13:26:59.053Z,16.50
2019-03-01T13:29:26.892Z,13.20
2019-03-01T13:31:54.769Z,14.28
2019-03-01T13:34:22.639Z,13.00
2019-03-01T13:36:54.085Z,14.55
2019-03-01T13:39:21.947Z,15.60
2019-03-01T13:41:49.920Z,15.40
2019-03-01T13:44:17.787Z,12.70
2019-03-01T13:46:45.672Z,13.10
2019-03-01T13:49:13.511Z,13.72
2019-03-01T13:51:41.387Z,13.40
2019-03-01T13:54:09.817Z,14.58
2019-03-01T13:56:37.715Z,12.90
2019-03-01T13:59:05.597Z,13.78
2019-03-01T14:01:33.467Z,13.65
2019-03-01T14:04:03.236Z,15.20
2019-03-01T14:06:31.000Z,15.80
2019-03-01T14:08:58.885Z,15.15
2019-03-01T14:11:26.741Z,14.65
2019-03-01T14:13:56.142Z,15.43
2019-03-01T14:16:24.195Z,14.38
2019-03-01T14:18:52.125Z,15.25
2019-03-01T14:21:20.033Z,14.07
2019-03-01T14:23:47.946Z,16.85
2019-03-01T14:26:18.453Z,17.70
2019-03-01T14:28:45.540Z,16.42
2019-03-01T14:31:13.382Z,15.30
2019-03-01T14:33:41.264Z,15.88
2019-03-01T14:36:09.085Z,14.78
2019-03-01T14:38:36.988Z,15.18
2019-03-01T14:41:04.834Z,16.10
2019-03-01T14:43:32.718Z,16.42
2019-03-01T14:46:00.562Z,16.27
2019-03-01T14:48:28.507Z,17.62
2019-03-01T14:50:56.689Z,15.40
2019-03-01T14:53:24.576Z,15.15
2019-03-01T14:55:55.668Z,15.10
2019-03-01T14:58:26.474Z,16.97
2019-03-01T15:00:59.594Z,15.80
2019-03-01T15:03:37.185Z,16.07
2019-03-01T15:06:05.771Z,17.05
2019-03-01T15:08:33.638Z,14.60
2019-03-01T15:11:04.275Z,15.48
2019-03-01T15:13:34.673Z,14.93
2019-03-01T15:16:04.983Z,14.45
2019-03-01T15:18:32.428Z,14.38
2019-03-01T15:21:02.809Z,14.40
2019-03-01T15:23:30.837Z,15.95
2019-03-01T15:25:58.779Z,16.90
2019-03-01T15:28:26.677Z,15.18
2019-03-01T15:30:54.590Z,15.40
2019-03-01T15:33:22.409Z,11.90
2019-03-01T15:35:50.383Z,12.98
2019-03-01T15:38:18.273Z,14.23
2019-03-01T15:40:46.242Z,14.15
2019-03-01T15:43:14.099Z,13.50
2019-03-01T15:45:42.020Z,13.05
2019-03-01T15:48:09.916Z,11.78
2019-03-01T15:50:37.954Z,11.83
2019-03-01T15:53:05.799Z,12.90
2019-03-01T15:55:33.661Z,11.68
2019-03-01T15:58:01.767Z,11.33
2019-03-01T16:00:30.548Z,11.50
2019-03-01T16:02:58.662Z,14.07
2019-03-01T16:05:26.570Z,10.90
2019-03-01T16:07:54.434Z,11.90
2019-03-01T16:10:22.325Z,11.97
2019-03-01T16:12:50.283Z,12.53
2019-03-01T16:15:18.143Z,10.43
2019-03-01T16:17:47.907Z,9.68
2019-03-01T16:20:15.786Z,10.55
2019-03-01T16:22:43.683Z,10.60
2019-03-01T16:25:12.258Z,10.40
2019-03-01T16:27:40.190Z,11.00
2019-03-01T16:30:09.321Z,10.98
2019-03-01T16:32:37.228Z,8.93
2019-03-01T16:35:05.383Z,9.10
2019-03-01T16:37:33.263Z,10.82
2019-03-01T16:40:01.605Z,9.75
2019-03-01T16:42:38.010Z,8.00
2019-03-01T16:44:59.186Z,8.75
2019-03-01T16:47:27.063Z,8.68
2019-03-01T16:49:54.950Z,9.15
2019-03-01T16:52:22.802Z,7.87
2019-03-01T16:54:51.447Z,7.85
2019-03-01T16:57:20.399Z,8.30
2019-03-01T16:59:48.338Z,9.20
2019-03-01T17:02:16.203Z,7.17
2019-03-01T17:04:44.100Z,7.80
2019-03-01T17:07:11.964Z,7.45
2019-03-01T17:12:27.498Z,6.25
2019-03-01T17:14:55.519Z,7.00
2019-03-01T17:17:23.372Z,6.75
2019-03-01T17:19:51.450Z,6.65
2019-03-01T17:22:19.314Z,7.67
2019-03-01T17:24:48.280Z,8.90
2019-03-01T17:27:16.298Z,7.97
2019-03-01T17:29:46.970Z,9.15
2019-03-01T17:32:14.908Z,8.18
2019-03-01T17:34:44.853Z,7.60
2019-03-01T17:37:12.758Z,7.17
2019-03-01T17:39:40.641Z,7.25
2019-03-01T17:42:08.491Z,7.53
2019-03-01T17:44:36.365Z,6.85
2019-03-01T17:47:06.078Z,6.67
2019-03-01T17:49:33.858Z,6.72
2019-03-01T17:52:01.806Z,7.80
2019-03-01T17:54:29.694Z,7.67
2019-03-01T17:56:57.956Z,6.30
2019-03-01T17:59:25.950Z,5.80
2019-03-01T18:01:53.873Z,7.10
2019-03-01T18:04:21.725Z,6.28
2019-03-01T18:06:51.461Z,6.12
2019-03-01T18:09:20.593Z,7.25
2019-03-01T18:11:49.582Z,6.80
2019-03-01T18:14:23.741Z,6.92
2019-03-01T18:16:52.041Z,7.00
2019-03-01T18:19:23.804Z,7.60
2019-03-01T18:21:51.158Z,7.15
2019-03-01T18:24:19.225Z,7.35
2019-03-01T18:26:48.524Z,6.85
2019-03-01T18:29:17.892Z,6.87
2019-03-01T18:31:45.852Z,6.08
2019-03-01T18:34:13.839Z,7.50
2019-03-01T18:36:41.869Z,7.40
2019-03-01T18:39:12.583Z,7.05
2019-03-01T18:41:41.643Z,7.95
2019-03-01T18:44:10.311Z,6.80
2019-03-01T18:46:38.267Z,7.75
2019-03-01T18:49:06.356Z,6.78
2019-03-01T18:51:35.520Z,6.67
2019-03-01T18:54:05.872Z,7.00
2019-03-01T18:56:37.500Z,6.53
2019-03-01T18:59:06.042Z,7.37
2019-03-01T19:01:35.182Z,6.70
2019-03-01T19:04:03.173Z,6.78
2019-03-01T19:06:33.716Z,6.28
2019-03-01T19:09:01.687Z,7.75
2019-03-01T19:11:34.718Z,8.28
2019-03-01T19:14:03.261Z,6.78
2019-03-01T19:16:36.206Z,8.10
2019-03-01T19:19:04.552Z,8.10
2019-03-01T19:21:32.453Z,9.28
2019-03-01T19:24:00.487Z,9.33
2019-03-01T19:26:28.471Z,8.88
2019-03-01T19:28:59.010Z,8.90
2019-03-01T19:31:28.359Z,9.05
2019-03-01T19:33:56.675Z,9.23
2019-03-01T19:36:25.649Z,8.85
2019-03-01T19:38:56.728Z,8.80
2019-03-01T19:41:25.385Z,8.10
2019-03-01T19:43:57.686Z,7.70
2019-03-01T19:46:26.602Z,7.95
2019-03-01T19:48:57.690Z,6.92
2019-03-01T19:51:26.396Z,6.90
2019-03-01T19:53:57.352Z,7.47
2019-03-01T19:56:26.011Z,6.92
2019-03-01T19:58:54.074Z,6.90
2019-03-01T20:01:24.427Z,8.53
2019-03-01T20:03:52.477Z,7.67
2019-03-01T20:06:20.926Z,7.65
2019-03-01T20:08:49.211Z,6.95
2019-03-01T20:11:18.305Z,6.92
2019-03-01T20:13:50.595Z,7.58
2019-03-01T20:16:19.750Z,6.60
2019-03-01T20:18:48.073Z,6.70
2019-03-01T20:21:19.723Z,7.65
2019-03-01T20:23:47.733Z,7.00
2019-03-01T20:26:17.186Z,7.35
2019-03-01T20:28:47.625Z,6.00
2019-03-01T20:31:16.404Z,7.58
2019-03-01T20:33:44.558Z,6.00
2019-03-01T20:36:26.162Z,5.72
2019-03-01T20:38:55.320Z,7.17
2019-03-01T20:41:23.512Z,5.80
2019-03-01T20:43:51.803Z,6.65
2019-03-01T20:46:19.836Z,5.60
2019-03-01T20:48:49.697Z,6.35
2019-03-01T20:51:26.353Z,6.30
2019-03-01T20:53:50.744Z,5.87
2019-03-01T20:56:19.959Z,6.75
2019-03-01T20:58:49.074Z,6.42
2019-03-01T21:01:23.320Z,7.28
2019-03-01T21:03:54.334Z,6.90
2019-03-01T21:06:23.413Z,6.55
2019-03-01T21:08:53.201Z,7.70
2019-03-01T21:11:21.780Z,7.15
2019-03-01T21:13:52.928Z,7.17
2019-03-01T21:16:20.895Z,7.25
2019-03-01T21:18:48.857Z,7.35
2019-03-01T21:21:16.905Z,7.17
2019-03-01T21:23:50.728Z,8.18
2019-03-01T21:26:17.275Z,7.58
2019-03-01T21:28:47.916Z,8.23
2019-03-01T21:31:16.155Z,8.68
2019-03-01T21:33:44.191Z,6.87
2019-03-01T21:36:14.062Z,6.90
2019-03-01T21:38:45.653Z,7.30
2019-03-01T21:41:12.676Z,7.05
2019-03-01T21:43:42.677Z,8.03
2019-03-01T21:46:10.684Z,7.08
2019-03-01T21:48:40.572Z,6.55
2019-03-01T21:51:08.554Z,6.92
2019-03-01T21:53:39.858Z,6.80
2019-03-01T21:56:08.811Z,6.37
2019-03-01T21:58:38.532Z,6.33
2019-03-01T22:01:12.741Z,6.30
2019-03-01T22:03:41.169Z,6.33
2019-03-01T22:06:11.098Z,6.28
2019-03-01T22:08:40.046Z,5.00
2019-03-01T22:11:15.355Z,4.72
2019-03-01T22:13:46.919Z,4.20
2019-03-01T22:16:16.029Z,3.55
2019-03-01T22:18:46.591Z,3.92
2019-03-01T22:21:22.632Z,4.42
2019-03-01T22:23:47.595Z,3.62
2019-03-01T22:26:16.971Z,4.05
2019-03-01T22:28:44.862Z,3.98
2019-03-01T22:31:13.263Z,3.75
2019-03-01T22:33:41.135Z,4.30
2019-03-01T22:36:10.147Z,3.52
2019-03-01T22:38:41.398Z,3.95
2019-03-01T22:41:09.322Z,3.87
2019-03-01T22:43:41.306Z,3.98
2019-03-01T22:46:09.437Z,4.25
2019-03-01T22:48:46.744Z,4.35
2019-03-01T22:51:08.804Z,3.75
2019-03-01T22:53:38.581Z,3.52
2019-03-01T22:56:11.861Z,4.85
2019-03-01T22:58:39.388Z,3.60
2019-03-01T23:01:20.909Z,4.03
2019-03-01T23:03:57.356Z,3.37
2019-03-01T23:06:27.763Z,3.98
2019-03-01T23:08:56.214Z,4.28
2019-03-01T23:11:24.209Z,3.65
2019-03-01T23:13:52.792Z,3.80
2019-03-01T23:16:21.935Z,3.95
2019-03-01T23:18:56.404Z,3.83
2019-03-01T23:21:19.443Z,3.58
2019-03-01T23:23:47.384Z,4.10
2019-03-01T23:26:18.656Z,5.08
2019-03-01T23:28:45.024Z,3.80
2019-03-01T23:31:17.593Z,3.60
2019-03-01T23:33:45.624Z,4.50
2019-03-01T23:36:13.566Z,4.10
2019-03-01T23:38:41.526Z,3.75
2019-03-01T23:41:13.139Z,4.65
2019-03-01T23:43:41.062Z,3.85
2019-03-01T23:46:09.014Z,4.92
2019-03-01T23:48:37.121Z,4.15
2019-03-01T23:51:14.622Z,4.10
2019-03-01T23:53:42.617Z,4.47
2019-03-01T23:56:12.154Z,4.42
2019-03-01T23:58:41.747Z,4.60
